sensor_id;sensor_type;location;lat;lon;timestamp;temperature;humidity
38568;DHT22;24338;48.280;10.970;2023-05-10T00:01:21;13.00;99.90
38568;DHT22;24338;48.280;10.970;2023-05-10T00:03:48;13.00;99.90
38568;DHT22;24338;48.280;10.970;2023-05-10T00:06:15;13.00;99.90
38568;DHT22;24338;48.280;10.970;2023-05-10T00:08:42;13.00;99.90
38568;DHT22;24338;48.280;10.970;2023-05-10T00:11:09;13.00;99.90
38568;DHT22;24338;48.280;10.970;2023-05-10T00:13:36;13.00;99.90
38568;DHT22;24338;48.280;10.970;2023-05-10T00:16:03;13.00;99.90
38568;DHT22;24338;48.280;10.970;2023-05-10T00:18:30;13.00;99.90
38568;DHT22;24338;48.280;10.970;2023-05-10T00:20:57;13.00;99.90
38568;DHT22;24338;48.280;10.970;2023-05-10T00:23:24;13.00;99.90
38568;DHT22;24338;48.280;10.970;2023-05-10T00:25:50;13.00;99.90
38568;DHT22;24338;48.280;10.970;2023-05-10T00:28:17;13.00;99.90
38568;DHT22;24338;48.280;10.970;2023-05-10T00:30:44;13.00;99.90
38568;DHT22;24338;48.280;10.970;2023-05-10T00:33:11;12.90;99.90
38568;DHT22;24338;48.280;10.970;2023-05-10T00:35:39;13.00;99.90
38568;DHT22;24338;48.280;10.970;2023-05-10T00:38:05;13.00;99.90
38568;DHT22;24338;48.280;10.970;2023-05-10T00:40:32;12.90;99.90
38568;DHT22;24338;48.280;10.970;2023-05-10T00:42:59;12.90;99.90
38568;DHT22;24338;48.280;10.970;2023-05-10T00:45:28;12.80;99.90
38568;DHT22;24338;48.280;10.970;2023-05-10T00:47:55;12.80;99.90
38568;DHT22;24338;48.280;10.970;2023-05-10T00:50:23;12.80;99.90
38568;DHT22;24338;48.280;10.970;2023-05-10T00:52:54;12.80;99.90
38568;DHT22;24338;48.280;10.970;2023-05-10T00:55:21;12.80;99.90
38568;DHT22;24338;48.280;10.970;2023-05-10T00:57:48;12.80;99.90
38568;DHT22;24338;48.280;10.970;2023-05-10T01:00:16;12.70;99.90
38568;DHT22;24338;48.280;10.970;2023-05-10T01:02:45;12.80;99.90
38568;DHT22;24338;48.280;10.970;2023-05-10T01:05:14;12.80;99.90
38568;DHT22;24338;48.280;10.970;2023-05-10T01:07:41;12.70;99.90
38568;DHT22;24338;48.280;10.970;2023-05-10T01:10:08;12.70;99.90
38568;DHT22;24338;48.280;10.970;2023-05-10T01:12:38;12.70;99.90
38568;DHT22;24338;48.280;10.970;2023-05-10T01:15:07;12.70;99.90
38568;DHT22;24338;48.280;10.970;2023-05-10T01:17:39;12.70;99.90
38568;DHT22;24338;48.280;10.970;2023-05-10T01:20:10;12.70;99.90
38568;DHT22;24338;48.280;10.970;2023-05-10T01:25:36;12.70;99.90
38568;DHT22;24338;48.280;10.970;2023-05-10T01:28:26;12.70;99.90
38568;DHT22;24338;48.280;10.970;2023-05-10T01:36:39;12.60;99.90
38568;DHT22;24338;48.280;10.970;2023-05-10T01:39:32;12.60;99.90
38568;DHT22;24338;48.280;10.970;2023-05-10T01:42:08;12.60;99.90
38568;DHT22;24338;48.280;10.970;2023-05-10T01:44:46;12.60;99.90
38568;DHT22;24338;48.280;10.970;2023-05-10T01:47:43;12.60;99.90
38568;DHT22;24338;48.280;10.970;2023-05-10T01:50:19;12.60;99.90
38568;DHT22;24338;48.280;10.970;2023-05-10T01:52:54;12.60;99.90
38568;DHT22;24338;48.280;10.970;2023-05-10T01:55:26;12.60;99.90
38568;DHT22;24338;48.280;10.970;2023-05-10T01:58:13;12.60;99.90
38568;DHT22;24338;48.280;10.970;2023-05-10T02:00:43;12.60;99.90
38568;DHT22;24338;48.280;10.970;2023-05-10T02:03:12;12.60;99.90
38568;DHT22;24338;48.280;10.970;2023-05-10T02:05:41;12.50;99.90
38568;DHT22;24338;48.280;10.970;2023-05-10T02:08:11;12.50;99.90
38568;DHT22;24338;48.280;10.970;2023-05-10T02:10:39;12.50;99.90
38568;DHT22;24338;48.280;10.970;2023-05-10T02:13:07;12.50;99.90
38568;DHT22;24338;48.280;10.970;2023-05-10T02:15:36;12.50;99.90
38568;DHT22;24338;48.280;10.970;2023-05-10T02:18:05;12.50;99.90
38568;DHT22;24338;48.280;10.970;2023-05-10T02:20:33;12.50;99.90
38568;DHT22;24338;48.280;10.970;2023-05-10T02:23:02;12.50;99.90
38568;DHT22;24338;48.280;10.970;2023-05-10T02:25:31;12.50;99.90
38568;DHT22;24338;48.280;10.970;2023-05-10T02:28:00;12.50;99.90
38568;DHT22;24338;48.280;10.970;2023-05-10T02:30:28;12.50;99.90
38568;DHT22;24338;48.280;10.970;2023-05-10T02:32:58;12.50;99.90
38568;DHT22;24338;48.280;10.970;2023-05-10T02:35:26;12.50;99.90
38568;DHT22;24338;48.280;10.970;2023-05-10T02:37:54;12.40;99.90
38568;DHT22;24338;48.280;10.970;2023-05-10T02:40:22;12.50;99.90
38568;DHT22;24338;48.280;10.970;2023-05-10T02:42:55;12.50;99.90
38568;DHT22;24338;48.280;10.970;2023-05-10T02:45:27;12.50;99.90
38568;DHT22;24338;48.280;10.970;2023-05-10T02:47:56;12.50;99.90
38568;DHT22;24338;48.280;10.970;2023-05-10T02:50:27;12.50;99.90
38568;DHT22;24338;48.280;10.970;2023-05-10T02:53:00;12.50;99.90
38568;DHT22;24338;48.280;10.970;2023-05-10T02:55:35;12.40;99.90
38568;DHT22;24338;48.280;10.970;2023-05-10T02:58:04;12.50;99.90
38568;DHT22;24338;48.280;10.970;2023-05-10T03:00:32;12.50;99.90
38568;DHT22;24338;48.280;10.970;2023-05-10T03:02:59;12.40;99.90
38568;DHT22;24338;48.280;10.970;2023-05-10T03:05:28;12.50;99.90
38568;DHT22;24338;48.280;10.970;2023-05-10T03:07:55;12.40;99.90
38568;DHT22;24338;48.280;10.970;2023-05-10T03:10:27;12.50;99.90
38568;DHT22;24338;48.280;10.970;2023-05-10T03:13:19;12.40;99.90
38568;DHT22;24338;48.280;10.970;2023-05-10T03:16:10;12.50;99.90
38568;DHT22;24338;48.280;10.970;2023-05-10T03:18:54;12.40;99.90
38568;DHT22;24338;48.280;10.970;2023-05-10T03:21:22;12.40;99.90
38568;DHT22;24338;48.280;10.970;2023-05-10T03:24:06;12.50;99.90
38568;DHT22;24338;48.280;10.970;2023-05-10T03:26:34;12.40;99.90
38568;DHT22;24338;48.280;10.970;2023-05-10T03:29:04;12.40;99.90
38568;DHT22;24338;48.280;10.970;2023-05-10T03:31:32;12.40;99.90
38568;DHT22;24338;48.280;10.970;2023-05-10T03:33:59;12.40;99.90
38568;DHT22;24338;48.280;10.970;2023-05-10T03:36:26;12.40;99.90
38568;DHT22;24338;48.280;10.970;2023-05-10T03:38:53;12.40;99.90
38568;DHT22;24338;48.280;10.970;2023-05-10T03:41:20;12.30;99.90
38568;DHT22;24338;48.280;10.970;2023-05-10T03:43:47;12.30;99.90
38568;DHT22;24338;48.280;10.970;2023-05-10T03:46:14;12.30;99.90
38568;DHT22;24338;48.280;10.970;2023-05-10T03:48:40;12.30;99.90
38568;DHT22;24338;48.280;10.970;2023-05-10T03:51:07;12.30;99.90
38568;DHT22;24338;48.280;10.970;2023-05-10T03:53:34;12.30;99.90
38568;DHT22;24338;48.280;10.970;2023-05-10T03:56:02;12.30;99.90
38568;DHT22;24338;48.280;10.970;2023-05-10T03:58:29;12.30;99.90
38568;DHT22;24338;48.280;10.970;2023-05-10T04:00:55;12.30;99.90
38568;DHT22;24338;48.280;10.970;2023-05-10T04:03:23;12.30;99.90
38568;DHT22;24338;48.280;10.970;2023-05-10T04:06:00;12.20;99.90
38568;DHT22;24338;48.280;10.970;2023-05-10T04:08:27;12.20;99.90
38568;DHT22;24338;48.280;10.970;2023-05-10T04:11:04;12.20;99.90
38568;DHT22;24338;48.280;10.970;2023-05-10T04:13:32;12.20;99.90
38568;DHT22;24338;48.280;10.970;2023-05-10T04:15:59;12.20;99.90
38568;DHT22;24338;48.280;10.970;2023-05-10T04:18:26;12.10;99.90
38568;DHT22;24338;48.280;10.970;2023-05-10T04:20:53;12.10;99.90
38568;DHT22;24338;48.280;10.970;2023-05-10T04:23:20;12.00;99.90
38568;DHT22;24338;48.280;10.970;2023-05-10T04:25:47;11.90;99.90
38568;DHT22;24338;48.280;10.970;2023-05-10T04:28:14;11.90;99.90
38568;DHT22;24338;48.280;10.970;2023-05-10T04:30:41;11.90;99.90
38568;DHT22;24338;48.280;10.970;2023-05-10T04:33:08;11.80;99.90
38568;DHT22;24338;48.280;10.970;2023-05-10T04:35:35;11.80;99.90
38568;DHT22;24338;48.280;10.970;2023-05-10T04:38:02;11.70;99.90
38568;DHT22;24338;48.280;10.970;2023-05-10T04:40:29;11.80;99.90
38568;DHT22;24338;48.280;10.970;2023-05-10T04:42:56;11.80;99.90
38568;DHT22;24338;48.280;10.970;2023-05-10T04:45:23;11.70;99.90
38568;DHT22;24338;48.280;10.970;2023-05-10T04:47:50;11.70;99.90
38568;DHT22;24338;48.280;10.970;2023-05-10T04:50:17;11.70;99.90
38568;DHT22;24338;48.280;10.970;2023-05-10T04:52:44;11.70;99.90
38568;DHT22;24338;48.280;10.970;2023-05-10T04:55:11;11.70;99.90
38568;DHT22;24338;48.280;10.970;2023-05-10T04:57:38;11.70;99.90
38568;DHT22;24338;48.280;10.970;2023-05-10T05:00:05;11.70;99.90
38568;DHT22;24338;48.280;10.970;2023-05-10T05:02:33;11.70;99.90
38568;DHT22;24338;48.280;10.970;2023-05-10T05:05:00;11.80;99.90
38568;DHT22;24338;48.280;10.970;2023-05-10T05:07:27;11.80;99.90
38568;DHT22;24338;48.280;10.970;2023-05-10T05:09:53;11.80;99.90
38568;DHT22;24338;48.280;10.970;2023-05-10T05:12:20;11.80;99.90
38568;DHT22;24338;48.280;10.970;2023-05-10T05:14:47;11.80;99.90
38568;DHT22;24338;48.280;10.970;2023-05-10T05:17:14;11.80;99.90
38568;DHT22;24338;48.280;10.970;2023-05-10T05:19:41;11.80;99.90
38568;DHT22;24338;48.280;10.970;2023-05-10T05:22:08;11.90;99.90
38568;DHT22;24338;48.280;10.970;2023-05-10T05:24:36;11.90;99.90
38568;DHT22;24338;48.280;10.970;2023-05-10T05:27:05;12.00;99.90
38568;DHT22;24338;48.280;10.970;2023-05-10T05:29:33;12.00;99.90
38568;DHT22;24338;48.280;10.970;2023-05-10T05:32:00;12.00;99.90
38568;DHT22;24338;48.280;10.970;2023-05-10T05:34:27;12.00;99.90
38568;DHT22;24338;48.280;10.970;2023-05-10T05:36:54;12.10;99.90
38568;DHT22;24338;48.280;10.970;2023-05-10T05:39:21;12.10;99.90
38568;DHT22;24338;48.280;10.970;2023-05-10T05:41:49;12.20;99.90
38568;DHT22;24338;48.280;10.970;2023-05-10T05:44:15;12.20;99.90
38568;DHT22;24338;48.280;10.970;2023-05-10T05:46:45;12.20;99.90
38568;DHT22;24338;48.280;10.970;2023-05-10T05:49:12;12.20;99.90
38568;DHT22;24338;48.280;10.970;2023-05-10T05:51:39;12.20;99.90
38568;DHT22;24338;48.280;10.970;2023-05-10T05:54:06;12.30;99.90
38568;DHT22;24338;48.280;10.970;2023-05-10T05:56:36;12.30;99.90
38568;DHT22;24338;48.280;10.970;2023-05-10T05:59:04;12.30;99.90
38568;DHT22;24338;48.280;10.970;2023-05-10T06:01:30;12.40;99.90
38568;DHT22;24338;48.280;10.970;2023-05-10T06:03:57;12.50;99.90
38568;DHT22;24338;48.280;10.970;2023-05-10T06:06:25;12.50;99.90
38568;DHT22;24338;48.280;10.970;2023-05-10T06:08:54;12.60;99.90
38568;DHT22;24338;48.280;10.970;2023-05-10T06:11:21;12.60;99.90
38568;DHT22;24338;48.280;10.970;2023-05-10T06:13:48;12.60;99.90
38568;DHT22;24338;48.280;10.970;2023-05-10T06:16:16;12.70;99.90
38568;DHT22;24338;48.280;10.970;2023-05-10T06:18:42;12.70;99.90
38568;DHT22;24338;48.280;10.970;2023-05-10T06:21:09;12.80;99.90
38568;DHT22;24338;48.280;10.970;2023-05-10T06:23:36;12.80;99.90
38568;DHT22;24338;48.280;10.970;2023-05-10T06:26:03;12.90;99.90
38568;DHT22;24338;48.280;10.970;2023-05-10T06:28:30;12.90;99.90
38568;DHT22;24338;48.280;10.970;2023-05-10T06:30:58;12.90;99.90
38568;DHT22;24338;48.280;10.970;2023-05-10T06:33:25;13.00;99.90
38568;DHT22;24338;48.280;10.970;2023-05-10T06:35:52;13.00;99.90
38568;DHT22;24338;48.280;10.970;2023-05-10T06:38:19;13.10;99.90
38568;DHT22;24338;48.280;10.970;2023-05-10T06:40:46;13.20;99.90
38568;DHT22;24338;48.280;10.970;2023-05-10T06:43:13;13.20;99.90
38568;DHT22;24338;48.280;10.970;2023-05-10T06:45:40;13.30;99.90
38568;DHT22;24338;48.280;10.970;2023-05-10T06:48:07;13.30;99.90
38568;DHT22;24338;48.280;10.970;2023-05-10T06:50:35;13.50;99.90
38568;DHT22;24338;48.280;10.970;2023-05-10T06:55:29;13.50;99.90
38568;DHT22;24338;48.280;10.970;2023-05-10T06:57:56;13.50;99.90
38568;DHT22;24338;48.280;10.970;2023-05-10T07:00:23;13.50;99.90
38568;DHT22;24338;48.280;10.970;2023-05-10T07:02:50;13.70;99.90
38568;DHT22;24338;48.280;10.970;2023-05-10T07:05:17;13.80;99.90
38568;DHT22;24338;48.280;10.970;2023-05-10T07:07:45;13.90;99.90
38568;DHT22;24338;48.280;10.970;2023-05-10T07:10:11;13.90;99.90
38568;DHT22;24338;48.280;10.970;2023-05-10T07:12:38;14.00;99.90
38568;DHT22;24338;48.280;10.970;2023-05-10T07:15:06;14.10;99.90
38568;DHT22;24338;48.280;10.970;2023-05-10T07:17:33;14.10;99.90
38568;DHT22;24338;48.280;10.970;2023-05-10T07:20:00;14.20;99.90
38568;DHT22;24338;48.280;10.970;2023-05-10T07:22:27;14.20;99.90
38568;DHT22;24338;48.280;10.970;2023-05-10T07:24:54;14.20;99.90
38568;DHT22;24338;48.280;10.970;2023-05-10T07:27:20;14.20;99.90
38568;DHT22;24338;48.280;10.970;2023-05-10T07:29:47;14.30;99.90
38568;DHT22;24338;48.280;10.970;2023-05-10T07:32:14;14.30;99.90
38568;DHT22;24338;48.280;10.970;2023-05-10T07:34:41;14.50;99.90
38568;DHT22;24338;48.280;10.970;2023-05-10T07:37:08;14.50;99.90
38568;DHT22;24338;48.280;10.970;2023-05-10T07:39:35;14.50;99.90
38568;DHT22;24338;48.280;10.970;2023-05-10T07:42:01;14.70;99.90
38568;DHT22;24338;48.280;10.970;2023-05-10T07:44:29;14.80;99.90
38568;DHT22;24338;48.280;10.970;2023-05-10T07:46:56;14.70;99.90
38568;DHT22;24338;48.280;10.970;2023-05-10T07:49:23;14.70;99.90
38568;DHT22;24338;48.280;10.970;2023-05-10T07:51:52;14.50;99.90
38568;DHT22;24338;48.280;10.970;2023-05-10T07:54:19;14.50;99.90
38568;DHT22;24338;48.280;10.970;2023-05-10T07:56:46;14.50;99.90
38568;DHT22;24338;48.280;10.970;2023-05-10T07:59:17;14.40;99.90
38568;DHT22;24338;48.280;10.970;2023-05-10T08:01:44;14.50;99.90
38568;DHT22;24338;48.280;10.970;2023-05-10T08:04:11;14.40;99.90
38568;DHT22;24338;48.280;10.970;2023-05-10T08:06:39;14.50;99.90
38568;DHT22;24338;48.280;10.970;2023-05-10T08:09:07;14.60;99.90
38568;DHT22;24338;48.280;10.970;2023-05-10T08:11:34;14.80;99.90
38568;DHT22;24338;48.280;10.970;2023-05-10T08:14:01;15.00;99.90
38568;DHT22;24338;48.280;10.970;2023-05-10T08:16:27;15.10;99.90
38568;DHT22;24338;48.280;10.970;2023-05-10T08:18:55;15.10;99.90
38568;DHT22;24338;48.280;10.970;2023-05-10T08:21:22;15.10;99.90
38568;DHT22;24338;48.280;10.970;2023-05-10T08:23:49;15.20;99.90
38568;DHT22;24338;48.280;10.970;2023-05-10T08:26:16;15.10;99.90
38568;DHT22;24338;48.280;10.970;2023-05-10T08:28:51;15.20;99.90
38568;DHT22;24338;48.280;10.970;2023-05-10T08:31:17;15.00;99.90
38568;DHT22;24338;48.280;10.970;2023-05-10T08:33:44;14.90;99.90
38568;DHT22;24338;48.280;10.970;2023-05-10T08:36:13;14.80;99.90
38568;DHT22;24338;48.280;10.970;2023-05-10T08:38:46;14.90;99.90
38568;DHT22;24338;48.280;10.970;2023-05-10T08:41:14;14.80;99.90
38568;DHT22;24338;48.280;10.970;2023-05-10T08:43:41;15.10;99.90
38568;DHT22;24338;48.280;10.970;2023-05-10T08:46:16;15.10;99.90
38568;DHT22;24338;48.280;10.970;2023-05-10T08:48:48;15.10;99.90
38568;DHT22;24338;48.280;10.970;2023-05-10T08:51:18;15.20;99.90
38568;DHT22;24338;48.280;10.970;2023-05-10T08:53:45;15.20;99.90
38568;DHT22;24338;48.280;10.970;2023-05-10T08:56:12;15.20;99.90
38568;DHT22;24338;48.280;10.970;2023-05-10T08:58:39;15.20;99.90
38568;DHT22;24338;48.280;10.970;2023-05-10T09:01:07;15.40;99.90
38568;DHT22;24338;48.280;10.970;2023-05-10T09:03:35;15.60;99.90
38568;DHT22;24338;48.280;10.970;2023-05-10T09:06:04;15.80;99.90
38568;DHT22;24338;48.280;10.970;2023-05-10T09:08:31;16.10;99.90
38568;DHT22;24338;48.280;10.970;2023-05-10T09:10:59;16.20;99.90
38568;DHT22;24338;48.280;10.970;2023-05-10T09:13:27;16.50;99.90
38568;DHT22;24338;48.280;10.970;2023-05-10T09:15:54;16.80;99.90
38568;DHT22;24338;48.280;10.970;2023-05-10T09:18:21;16.70;99.90
38568;DHT22;24338;48.280;10.970;2023-05-10T09:20:48;16.60;99.90
38568;DHT22;24338;48.280;10.970;2023-05-10T09:23:15;16.50;99.90
38568;DHT22;24338;48.280;10.970;2023-05-10T09:25:42;16.60;99.90
38568;DHT22;24338;48.280;10.970;2023-05-10T09:28:09;16.80;99.90
38568;DHT22;24338;48.280;10.970;2023-05-10T09:30:36;17.00;99.90
38568;DHT22;24338;48.280;10.970;2023-05-10T09:33:03;16.90;99.90
38568;DHT22;24338;48.280;10.970;2023-05-10T09:35:32;17.00;99.90
38568;DHT22;24338;48.280;10.970;2023-05-10T09:38:05;16.80;99.90
38568;DHT22;24338;48.280;10.970;2023-05-10T09:40:32;16.80;99.90
38568;DHT22;24338;48.280;10.970;2023-05-10T09:43:04;16.90;99.90
38568;DHT22;24338;48.280;10.970;2023-05-10T09:45:34;16.90;99.90
38568;DHT22;24338;48.280;10.970;2023-05-10T09:48:05;16.90;99.90
38568;DHT22;24338;48.280;10.970;2023-05-10T09:50:33;16.80;99.90
38568;DHT22;24338;48.280;10.970;2023-05-10T09:53:03;16.50;99.90
38568;DHT22;24338;48.280;10.970;2023-05-10T09:55:42;16.00;99.90
38568;DHT22;24338;48.280;10.970;2023-05-10T09:58:13;16.00;99.90
38568;DHT22;24338;48.280;10.970;2023-05-10T10:00:43;16.00;99.90
38568;DHT22;24338;48.280;10.970;2023-05-10T10:03:15;15.90;99.90
38568;DHT22;24338;48.280;10.970;2023-05-10T10:05:43;15.90;99.90
38568;DHT22;24338;48.280;10.970;2023-05-10T10:08:11;15.70;99.90
38568;DHT22;24338;48.280;10.970;2023-05-10T10:10:39;15.60;99.90
38568;DHT22;24338;48.280;10.970;2023-05-10T10:13:13;15.40;99.90
38568;DHT22;24338;48.280;10.970;2023-05-10T10:15:40;15.30;99.90
38568;DHT22;24338;48.280;10.970;2023-05-10T10:18:07;15.30;99.90
38568;DHT22;24338;48.280;10.970;2023-05-10T10:20:38;15.40;99.90
38568;DHT22;24338;48.280;10.970;2023-05-10T10:23:05;15.40;99.90
38568;DHT22;24338;48.280;10.970;2023-05-10T10:25:32;15.70;99.90
38568;DHT22;24338;48.280;10.970;2023-05-10T10:28:09;16.00;99.90
38568;DHT22;24338;48.280;10.970;2023-05-10T10:30:46;16.10;99.90
38568;DHT22;24338;48.280;10.970;2023-05-10T10:36:04;15.90;99.90
38568;DHT22;24338;48.280;10.970;2023-05-10T10:38:54;16.00;99.90
38568;DHT22;24338;48.280;10.970;2023-05-10T10:41:33;16.20;99.90
38568;DHT22;24338;48.280;10.970;2023-05-10T10:44:23;16.60;99.90
38568;DHT22;24338;48.280;10.970;2023-05-10T10:47:10;16.60;99.90
38568;DHT22;24338;48.280;10.970;2023-05-10T10:50:05;16.50;99.90
38568;DHT22;24338;48.280;10.970;2023-05-10T10:52:37;16.50;99.90
38568;DHT22;24338;48.280;10.970;2023-05-10T11:00:31;16.70;99.90
38568;DHT22;24338;48.280;10.970;2023-05-10T11:03:09;16.70;99.90
38568;DHT22;24338;48.280;10.970;2023-05-10T11:05:43;16.60;99.90
38568;DHT22;24338;48.280;10.970;2023-05-10T11:08:27;16.50;99.90
38568;DHT22;24338;48.280;10.970;2023-05-10T11:11:03;16.30;99.90
38568;DHT22;24338;48.280;10.970;2023-05-10T11:13:31;16.30;99.90
38568;DHT22;24338;48.280;10.970;2023-05-10T11:16:09;16.50;99.90
38568;DHT22;24338;48.280;10.970;2023-05-10T11:18:36;16.70;99.90
38568;DHT22;24338;48.280;10.970;2023-05-10T11:21:04;16.60;99.90
38568;DHT22;24338;48.280;10.970;2023-05-10T11:23:48;16.80;99.90
38568;DHT22;24338;48.280;10.970;2023-05-10T11:26:16;16.80;99.90
38568;DHT22;24338;48.280;10.970;2023-05-10T11:28:44;16.80;99.90
38568;DHT22;24338;48.280;10.970;2023-05-10T11:31:16;16.70;99.90
38568;DHT22;24338;48.280;10.970;2023-05-10T11:36:15;17.00;99.90
38568;DHT22;24338;48.280;10.970;2023-05-10T11:38:43;17.20;99.90
38568;DHT22;24338;48.280;10.970;2023-05-10T11:41:10;17.40;99.90
38568;DHT22;24338;48.280;10.970;2023-05-10T11:43:59;17.40;99.90
38568;DHT22;24338;48.280;10.970;2023-05-10T11:46:36;17.30;99.90
38568;DHT22;24338;48.280;10.970;2023-05-10T11:49:03;17.30;99.90
38568;DHT22;24338;48.280;10.970;2023-05-10T11:51:34;17.40;99.90
38568;DHT22;24338;48.280;10.970;2023-05-10T11:54:07;17.20;99.90
38568;DHT22;24338;48.280;10.970;2023-05-10T11:56:38;17.20;99.90
38568;DHT22;24338;48.280;10.970;2023-05-10T11:59:05;17.20;99.90
38568;DHT22;24338;48.280;10.970;2023-05-10T12:01:32;17.10;99.90
38568;DHT22;24338;48.280;10.970;2023-05-10T12:04:00;17.00;99.90
38568;DHT22;24338;48.280;10.970;2023-05-10T12:06:30;16.90;99.90
38568;DHT22;24338;48.280;10.970;2023-05-10T12:08:58;16.50;99.90
38568;DHT22;24338;48.280;10.970;2023-05-10T12:11:26;16.10;99.90
38568;DHT22;24338;48.280;10.970;2023-05-10T12:13:54;16.00;99.90
38568;DHT22;24338;48.280;10.970;2023-05-10T12:16:22;15.80;99.90
38568;DHT22;24338;48.280;10.970;2023-05-10T12:18:54;15.40;99.90
38568;DHT22;24338;48.280;10.970;2023-05-10T12:21:22;15.10;99.90
38568;DHT22;24338;48.280;10.970;2023-05-10T12:23:53;14.90;99.90
38568;DHT22;24338;48.280;10.970;2023-05-10T12:26:24;14.90;99.90
38568;DHT22;24338;48.280;10.970;2023-05-10T12:28:53;14.70;99.90
38568;DHT22;24338;48.280;10.970;2023-05-10T12:31:20;14.70;99.90
38568;DHT22;24338;48.280;10.970;2023-05-10T12:33:50;14.60;99.90
38568;DHT22;24338;48.280;10.970;2023-05-10T12:36:23;14.80;99.90
38568;DHT22;24338;48.280;10.970;2023-05-10T12:38:59;14.70;99.90
38568;DHT22;24338;48.280;10.970;2023-05-10T12:41:28;14.80;99.90
38568;DHT22;24338;48.280;10.970;2023-05-10T12:43:56;15.00;99.90
38568;DHT22;24338;48.280;10.970;2023-05-10T12:46:23;15.10;99.90
38568;DHT22;24338;48.280;10.970;2023-05-10T12:48:51;15.20;99.90
38568;DHT22;24338;48.280;10.970;2023-05-10T12:51:34;15.30;99.90
38568;DHT22;24338;48.280;10.970;2023-05-10T12:54:02;15.40;99.90
38568;DHT22;24338;48.280;10.970;2023-05-10T12:56:29;15.30;99.90
38568;DHT22;24338;48.280;10.970;2023-05-10T12:58:56;15.40;99.90
38568;DHT22;24338;48.280;10.970;2023-05-10T13:01:23;15.40;99.90
38568;DHT22;24338;48.280;10.970;2023-05-10T13:03:50;15.20;99.90
38568;DHT22;24338;48.280;10.970;2023-05-10T13:06:17;15.10;99.90
38568;DHT22;24338;48.280;10.970;2023-05-10T13:08:43;15.00;99.90
38568;DHT22;24338;48.280;10.970;2023-05-10T13:11:11;15.00;99.90
38568;DHT22;24338;48.280;10.970;2023-05-10T13:13:37;14.90;99.90
38568;DHT22;24338;48.280;10.970;2023-05-10T13:16:04;14.90;99.90
38568;DHT22;24338;48.280;10.970;2023-05-10T13:18:31;15.00;99.90
38568;DHT22;24338;48.280;10.970;2023-05-10T13:20:58;15.00;99.90
38568;DHT22;24338;48.280;10.970;2023-05-10T13:23:25;15.00;99.90
38568;DHT22;24338;48.280;10.970;2023-05-10T13:25:52;15.00;99.90
38568;DHT22;24338;48.280;10.970;2023-05-10T13:28:19;15.00;99.90
38568;DHT22;24338;48.280;10.970;2023-05-10T13:30:46;15.00;99.90
38568;DHT22;24338;48.280;10.970;2023-05-10T13:33:12;14.90;99.90
38568;DHT22;24338;48.280;10.970;2023-05-10T13:35:39;14.70;99.90
38568;DHT22;24338;48.280;10.970;2023-05-10T13:38:06;14.50;99.90
38568;DHT22;24338;48.280;10.970;2023-05-10T13:40:34;14.30;99.90
38568;DHT22;24338;48.280;10.970;2023-05-10T13:43:02;14.20;99.90
38568;DHT22;24338;48.280;10.970;2023-05-10T13:45:31;14.10;99.90
38568;DHT22;24338;48.280;10.970;2023-05-10T13:47:59;14.00;99.90
38568;DHT22;24338;48.280;10.970;2023-05-10T13:50:26;13.80;99.90
38568;DHT22;24338;48.280;10.970;2023-05-10T13:52:53;13.60;99.90
38568;DHT22;24338;48.280;10.970;2023-05-10T13:55:22;13.40;99.90
38568;DHT22;24338;48.280;10.970;2023-05-10T13:57:49;13.20;99.90
38568;DHT22;24338;48.280;10.970;2023-05-10T14:00:19;13.00;99.90
38568;DHT22;24338;48.280;10.970;2023-05-10T14:02:46;12.80;99.90
38568;DHT22;24338;48.280;10.970;2023-05-10T14:05:12;12.80;99.90
38568;DHT22;24338;48.280;10.970;2023-05-10T14:07:44;12.80;99.90
38568;DHT22;24338;48.280;10.970;2023-05-10T14:10:11;12.70;99.90
38568;DHT22;24338;48.280;10.970;2023-05-10T14:12:38;12.70;99.90
38568;DHT22;24338;48.280;10.970;2023-05-10T14:15:05;12.70;99.90
38568;DHT22;24338;48.280;10.970;2023-05-10T14:17:33;12.70;99.90
38568;DHT22;24338;48.280;10.970;2023-05-10T14:20:00;12.70;99.90
38568;DHT22;24338;48.280;10.970;2023-05-10T14:22:27;12.70;99.90
38568;DHT22;24338;48.280;10.970;2023-05-10T14:24:54;12.50;99.90
38568;DHT22;24338;48.280;10.970;2023-05-10T14:27:22;12.40;99.90
38568;DHT22;24338;48.280;10.970;2023-05-10T14:29:49;12.30;99.90
38568;DHT22;24338;48.280;10.970;2023-05-10T14:32:16;12.20;99.90
38568;DHT22;24338;48.280;10.970;2023-05-10T14:34:43;12.10;99.90
38568;DHT22;24338;48.280;10.970;2023-05-10T14:37:11;12.10;99.90
38568;DHT22;24338;48.280;10.970;2023-05-10T14:39:38;12.00;99.90
38568;DHT22;24338;48.280;10.970;2023-05-10T14:42:05;11.90;99.90
38568;DHT22;24338;48.280;10.970;2023-05-10T14:44:31;11.90;99.90
38568;DHT22;24338;48.280;10.970;2023-05-10T14:46:58;11.90;99.90
38568;DHT22;24338;48.280;10.970;2023-05-10T14:49:25;12.00;99.90
38568;DHT22;24338;48.280;10.970;2023-05-10T14:51:52;11.90;99.90
38568;DHT22;24338;48.280;10.970;2023-05-10T14:54:19;12.00;99.90
38568;DHT22;24338;48.280;10.970;2023-05-10T14:56:47;12.00;99.90
38568;DHT22;24338;48.280;10.970;2023-05-10T14:59:16;12.00;99.90
38568;DHT22;24338;48.280;10.970;2023-05-10T15:01:44;12.00;99.90
38568;DHT22;24338;48.280;10.970;2023-05-10T15:04:11;12.00;99.90
38568;DHT22;24338;48.280;10.970;2023-05-10T15:06:40;12.00;99.90
38568;DHT22;24338;48.280;10.970;2023-05-10T15:09:07;11.90;99.90
38568;DHT22;24338;48.280;10.970;2023-05-10T15:11:34;12.00;99.90
38568;DHT22;24338;48.280;10.970;2023-05-10T15:14:01;12.00;99.90
38568;DHT22;24338;48.280;10.970;2023-05-10T15:16:28;12.10;99.90
38568;DHT22;24338;48.280;10.970;2023-05-10T15:18:55;11.90;99.90
38568;DHT22;24338;48.280;10.970;2023-05-10T15:21:22;12.00;99.90
38568;DHT22;24338;48.280;10.970;2023-05-10T15:23:49;11.90;99.90
38568;DHT22;24338;48.280;10.970;2023-05-10T15:26:15;11.90;99.90
38568;DHT22;24338;48.280;10.970;2023-05-10T15:28:42;11.90;99.90
38568;DHT22;24338;48.280;10.970;2023-05-10T15:31:10;11.80;99.90
38568;DHT22;24338;48.280;10.970;2023-05-10T15:33:37;11.90;99.90
38568;DHT22;24338;48.280;10.970;2023-05-10T15:36:04;11.90;99.90
38568;DHT22;24338;48.280;10.970;2023-05-10T15:38:31;11.80;99.90
38568;DHT22;24338;48.280;10.970;2023-05-10T15:40:58;11.60;99.90
38568;DHT22;24338;48.280;10.970;2023-05-10T15:43:25;11.60;99.90
38568;DHT22;24338;48.280;10.970;2023-05-10T15:45:51;11.50;99.90
38568;DHT22;24338;48.280;10.970;2023-05-10T15:48:18;11.50;99.90